createdAt,value
2022-12-24T00:01:36.665Z,63.52
2022-12-24T00:04:06.731Z,63.52
2022-12-24T00:06:35.387Z,63.74
2022-12-24T00:09:04.549Z,63.93
2022-12-24T00:11:32.971Z,64.46
2022-12-24T00:14:01.428Z,65.31
2022-12-24T00:16:30.174Z,65.50
2022-12-24T00:18:58.759Z,65.75
2022-12-24T00:21:28.613Z,65.99
2022-12-24T00:23:56.919Z,66.42
2022-12-24T00:26:25.324Z,66.55
2022-12-24T00:28:53.684Z,65.75
2022-12-24T00:31:22.095Z,65.33
2022-12-24T00:33:51.413Z,65.14
2022-12-24T00:36:20.949Z,65.57
2022-12-24T00:38:51.380Z,66.00
2022-12-24T00:41:26.254Z,65.58
2022-12-24T00:43:55.572Z,64.82
2022-12-24T00:46:24.497Z,64.99
2022-12-24T00:48:53.103Z,64.43
2022-12-24T00:51:22.665Z,65.82
2022-12-24T00:53:53.366Z,65.13
2022-12-24T00:56:22.053Z,65.50
2022-12-24T00:58:50.949Z,65.83
2022-12-24T01:01:19.875Z,65.72
2022-12-24T01:03:48.692Z,65.42
2022-12-24T01:06:18.516Z,65.71
2022-12-24T01:08:47.109Z,66.15
2022-12-24T01:11:17.201Z,66.22
2022-12-24T01:13:45.698Z,65.96
2022-12-24T01:16:19.244Z,65.74
2022-12-24T01:18:47.844Z,65.27
2022-12-24T01:21:16.686Z,65.20
2022-12-24T01:23:45.649Z,65.20
2022-12-24T01:26:14.179Z,64.89
2022-12-24T01:28:44.275Z,64.98
2022-12-24T01:31:14.325Z,63.70
2022-12-24T01:33:43.289Z,63.01
2022-12-24T01:36:12.349Z,62.96
2022-12-24T01:38:41.255Z,62.19
2022-12-24T01:41:32.255Z,62.19
2022-12-24T01:44:20.946Z,62.04
2022-12-24T01:46:51.759Z,62.92
2022-12-24T01:49:20.651Z,63.12
2022-12-24T01:51:53.434Z,63.57
2022-12-24T01:54:25.737Z,63.15
2022-12-24T01:56:57.298Z,62.32
2022-12-24T01:59:27.465Z,62.77
2022-12-24T02:01:56.418Z,62.76
2022-12-24T02:04:33.665Z,61.73
2022-12-24T02:07:02.400Z,61.48
2022-12-24T02:09:31.396Z,62.26
2022-12-24T02:12:00.753Z,61.37
2022-12-24T02:14:32.500Z,62.05
2022-12-24T02:17:07.065Z,62.20
2022-12-24T02:20:10.309Z,62.02
2022-12-24T02:23:00.009Z,61.27
2022-12-24T02:25:45.512Z,62.21
2022-12-24T02:28:27.078Z,61.14
2022-12-24T02:31:02.108Z,61.50
2022-12-24T02:33:34.596Z,60.94
2022-12-24T02:36:08.176Z,60.02
2022-12-24T02:38:42.927Z,60.93
2022-12-24T02:41:18.213Z,61.58
2022-12-24T02:43:48.826Z,61.61
2022-12-24T02:46:22.539Z,61.45
2022-12-24T02:48:51.010Z,60.78
2022-12-24T02:51:24.244Z,61.69
2022-12-24T02:53:53.187Z,61.00
2022-12-24T02:56:47.442Z,61.14
2022-12-24T02:59:30.993Z,60.74
2022-12-24T03:02:11.391Z,60.62
2022-12-24T03:04:50.094Z,59.93
2022-12-24T03:07:22.191Z,60.24
2022-12-24T03:10:04.862Z,60.52
2022-12-24T03:12:37.523Z,60.89
2022-12-24T03:15:08.628Z,60.60
2022-12-24T03:17:40.788Z,61.07
2022-12-24T03:20:12.442Z,60.97
2022-12-24T03:22:41.520Z,60.84
2022-12-24T03:25:10.335Z,61.13
2022-12-24T03:27:40.418Z,60.64
2022-12-24T03:30:14.466Z,59.84
2022-12-24T03:32:44.332Z,60.23
2022-12-24T03:35:13.157Z,60.06
2022-12-24T03:37:41.935Z,59.76
2022-12-24T03:40:11.233Z,59.42
2022-12-24T03:42:39.624Z,59.50
2022-12-24T03:45:09.076Z,60.24
2022-12-24T03:47:37.873Z,59.78
2022-12-24T03:50:09.123Z,59.80
2022-12-24T03:52:37.791Z,60.38
2022-12-24T03:55:06.934Z,60.94
2022-12-24T03:57:35.266Z,60.84
2022-12-24T04:00:03.809Z,60.50
2022-12-24T04:02:32.452Z,59.09
2022-12-24T04:05:00.931Z,57.91
2022-12-24T04:07:30.786Z,59.26
2022-12-24T04:09:59.104Z,59.55
2022-12-24T04:12:27.646Z,58.32
2022-12-24T04:14:55.946Z,57.41
2022-12-24T04:17:24.261Z,58.47
2022-12-24T04:19:52.537Z,59.12
2022-12-24T04:22:20.846Z,59.49
2022-12-24T04:24:50.586Z,58.67
2022-12-24T04:27:19.499Z,59.33
2022-12-24T04:29:47.958Z,58.83
2022-12-24T04:32:16.349Z,59.50
2022-12-24T04:34:44.764Z,59.86
2022-12-24T04:37:13.247Z,60.33
2022-12-24T04:39:41.676Z,60.32
2022-12-24T04:42:12.566Z,60.22
2022-12-24T04:44:40.925Z,60.86
2022-12-24T04:47:10.876Z,61.04
2022-12-24T04:49:39.973Z,61.58
2022-12-24T04:52:08.369Z,62.44
2022-12-24T04:54:37.096Z,62.63
2022-12-24T04:57:05.601Z,62.98
2022-12-24T04:59:35.587Z,63.20
2022-12-24T05:02:04.259Z,63.45
2022-12-24T05:04:32.802Z,63.70
2022-12-24T05:07:01.085Z,64.18
2022-12-24T05:09:29.561Z,64.45
2022-12-24T05:11:57.872Z,64.22
2022-12-24T05:14:26.270Z,64.61
2022-12-24T05:16:56.195Z,64.92
2022-12-24T05:19:24.640Z,64.78
2022-12-24T05:22:06.805Z,65.16
2022-12-24T05:24:51.776Z,65.48
2022-12-24T05:27:20.210Z,63.69
2022-12-24T05:29:48.552Z,63.77
2022-12-24T05:32:18.340Z,63.86
2022-12-24T05:34:46.661Z,63.83
2022-12-24T05:37:15.135Z,63.74
2022-12-24T05:39:43.497Z,62.71
2022-12-24T05:42:11.860Z,62.86
2022-12-24T05:44:40.230Z,62.98
2022-12-24T05:47:08.476Z,62.76
2022-12-24T05:49:38.283Z,61.77
2022-12-24T05:52:06.717Z,61.95
2022-12-24T05:54:35.099Z,61.80
2022-12-24T05:57:03.700Z,61.97
2022-12-24T05:59:32.302Z,61.45
2022-12-24T06:02:00.827Z,60.15
2022-12-24T06:04:29.706Z,59.54
2022-12-24T06:06:59.797Z,59.52
2022-12-24T06:09:28.248Z,60.20
2022-12-24T06:11:56.536Z,60.07
2022-12-24T06:14:24.929Z,59.70
2022-12-24T06:16:53.658Z,61.00
2022-12-24T06:19:22.141Z,61.10
2022-12-24T06:21:50.404Z,61.68
2022-12-24T06:24:20.195Z,61.87
2022-12-24T06:26:48.444Z,61.64
2022-12-24T06:29:16.843Z,61.47
2022-12-24T06:31:45.265Z,61.60
2022-12-24T06:34:13.604Z,61.99
2022-12-24T06:36:41.963Z,62.36
2022-12-24T06:39:10.255Z,62.53
2022-12-24T06:41:40.190Z,62.60
2022-12-24T06:44:08.494Z,62.30
2022-12-24T06:46:36.871Z,62.25
2022-12-24T06:49:05.329Z,62.43
2022-12-24T06:51:33.999Z,62.75
2022-12-24T06:54:02.413Z,62.86
2022-12-24T06:56:30.812Z,63.20
2022-12-24T06:59:05.363Z,63.17
2022-12-24T07:01:34.191Z,63.68
2022-12-24T07:04:02.604Z,64.25
2022-12-24T07:06:32.211Z,64.71
2022-12-24T07:09:00.757Z,64.76
2022-12-24T07:11:29.232Z,64.68
2022-12-24T07:13:57.677Z,65.05
2022-12-24T07:16:27.578Z,65.42
2022-12-24T07:18:55.898Z,65.47
2022-12-24T07:21:24.300Z,65.54
2022-12-24T07:23:52.585Z,65.67
2022-12-24T07:26:21.086Z,65.81
2022-12-24T07:28:49.563Z,66.17
2022-12-24T07:31:18.010Z,65.99
2022-12-24T07:33:47.879Z,65.53
2022-12-24T07:36:20.931Z,64.88
2022-12-24T07:38:49.394Z,65.90
2022-12-24T07:41:17.811Z,65.90
2022-12-24T07:43:46.192Z,65.87
2022-12-24T07:46:14.808Z,65.70
2022-12-24T07:48:43.266Z,64.81
2022-12-24T07:51:13.001Z,65.37
2022-12-24T07:53:47.748Z,65.05
2022-12-24T07:56:16.505Z,65.34
2022-12-24T07:58:44.935Z,65.61
2022-12-24T08:01:13.592Z,65.38
2022-12-24T08:03:42.141Z,65.12
2022-12-24T08:06:12.986Z,65.38
2022-12-24T08:08:41.289Z,65.20
2022-12-24T08:11:09.929Z,65.43
2022-12-24T08:13:38.548Z,64.58
2022-12-24T08:16:07.742Z,65.15
2022-12-24T08:18:36.240Z,65.64
2022-12-24T08:21:04.917Z,65.10
2022-12-24T08:23:34.767Z,65.21
2022-12-24T08:26:03.390Z,65.53
2022-12-24T08:28:31.736Z,65.62
2022-12-24T08:31:01.106Z,64.72
2022-12-24T08:33:29.544Z,64.93
2022-12-24T08:35:59.173Z,65.24
2022-12-24T08:38:27.484Z,64.75
2022-12-24T08:40:58.123Z,65.05
2022-12-24T08:43:27.081Z,64.86
2022-12-24T08:45:55.630Z,64.84
2022-12-24T08:48:24.083Z,64.94
2022-12-24T08:50:52.555Z,64.73
2022-12-24T08:53:20.895Z,64.90
2022-12-24T08:55:55.759Z,64.90
2022-12-24T08:58:26.301Z,65.02
2022-12-24T09:00:54.836Z,64.81
2022-12-24T09:03:27.298Z,65.04
2022-12-24T09:05:56.732Z,64.50
2022-12-24T09:08:25.066Z,64.56
2022-12-24T09:10:53.624Z,64.83
2022-12-24T09:13:21.990Z,64.37
2022-12-24T09:15:56.992Z,64.32
2022-12-24T09:18:25.625Z,64.53
2022-12-24T09:21:00.308Z,64.46
2022-12-24T09:23:28.785Z,64.51
2022-12-24T09:25:57.574Z,64.64
2022-12-24T09:28:26.211Z,64.92
2022-12-24T09:31:01.029Z,63.55
2022-12-24T09:33:30.334Z,64.24
2022-12-24T09:35:59.652Z,64.43
2022-12-24T09:38:28.381Z,64.54
2022-12-24T09:40:57.507Z,64.45
2022-12-24T09:43:27.662Z,64.21
2022-12-24T09:46:10.037Z,64.50
2022-12-24T09:48:43.249Z,65.19
2022-12-24T09:51:13.537Z,65.29
2022-12-24T09:53:49.845Z,65.42
2022-12-24T09:56:22.705Z,65.26
2022-12-24T09:58:56.169Z,65.57
2022-12-24T10:01:26.767Z,65.94
2022-12-24T10:03:55.395Z,65.91
2022-12-24T10:06:29.443Z,65.91
2022-12-24T10:09:09.052Z,65.96
2022-12-24T10:11:48.088Z,66.02
2022-12-24T10:14:40.734Z,65.84
2022-12-24T10:17:28.139Z,65.17
2022-12-24T10:20:21.478Z,63.78
2022-12-24T10:22:57.394Z,63.48
2022-12-24T10:25:30.919Z,64.07
2022-12-24T10:28:02.801Z,64.28
2022-12-24T10:30:32.045Z,64.51
2022-12-24T10:33:02.181Z,64.63
2022-12-24T10:35:33.842Z,64.08
2022-12-24T10:38:02.323Z,62.88
2022-12-24T10:40:36.922Z,62.80
2022-12-24T10:43:15.379Z,63.30
2022-12-24T10:45:48.090Z,63.51
2022-12-24T10:48:25.520Z,61.92
2022-12-24T10:50:58.151Z,62.35
2022-12-24T10:53:35.505Z,62.32
2022-12-24T10:56:06.574Z,62.20
2022-12-24T10:58:35.919Z,62.83
2022-12-24T11:01:05.769Z,62.89
2022-12-24T11:03:38.265Z,63.21
2022-12-24T11:06:10.358Z,63.37
2022-12-24T11:08:41.075Z,63.47
2022-12-24T11:11:11.377Z,63.48
2022-12-24T11:13:42.293Z,63.56
2022-12-24T11:16:20.107Z,63.84
2022-12-24T11:18:52.582Z,63.51
2022-12-24T11:21:24.577Z,63.66
2022-12-24T11:23:56.736Z,63.67
2022-12-24T11:26:27.136Z,63.50
2022-12-24T11:29:13.539Z,63.59
2022-12-24T11:31:43.009Z,63.87
2022-12-24T11:34:29.810Z,63.66
2022-12-24T11:37:14.975Z,63.12
2022-12-24T11:39:49.052Z,62.63
2022-12-24T11:42:37.184Z,62.34
2022-12-24T11:45:09.131Z,62.16
2022-12-24T11:47:39.289Z,61.67
2022-12-24T11:50:30.500Z,60.58
2022-12-24T11:53:07.118Z,61.65
2022-12-24T11:55:46.405Z,61.68
2022-12-24T11:58:24.162Z,61.50
2022-12-24T12:00:54.141Z,61.55
2022-12-24T12:03:33.992Z,61.32
2022-12-24T12:06:08.868Z,61.82
2022-12-24T12:08:39.009Z,61.78
2022-12-24T12:11:13.515Z,61.16
2022-12-24T12:13:45.352Z,61.06
2022-12-24T12:16:21.888Z,60.82
2022-12-24T12:18:57.178Z,61.11
2022-12-24T12:21:39.765Z,60.75
2022-12-24T12:24:14.395Z,59.15
2022-12-24T12:26:44.397Z,60.28
2022-12-24T12:29:27.002Z,60.21
2022-12-24T12:31:58.990Z,60.17
2022-12-24T12:34:34.351Z,60.78
2022-12-24T12:37:14.483Z,60.80
2022-12-24T12:39:43.954Z,61.16
2022-12-24T12:42:19.569Z,60.37
2022-12-24T12:45:01.672Z,60.85
2022-12-24T12:48:02.307Z,60.71
2022-12-24T12:50:34.907Z,61.07
2022-12-24T12:53:32.086Z,60.30
2022-12-24T12:56:11.429Z,60.07
2022-12-24T12:58:45.340Z,60.43
2022-12-24T13:01:23.092Z,60.46
2022-12-24T13:04:33.774Z,60.74
2022-12-24T13:07:38.056Z,61.01
2022-12-24T13:10:53.014Z,60.91
2022-12-24T13:13:50.184Z,61.13
2022-12-24T13:16:49.293Z,61.93
2022-12-24T13:19:38.278Z,62.34
2022-12-24T13:22:15.619Z,62.30
2022-12-24T13:24:52.377Z,62.76
2022-12-24T13:27:27.650Z,62.99
2022-12-24T13:30:02.199Z,63.28
2022-12-24T13:32:49.931Z,63.38
2022-12-24T13:35:38.961Z,63.05
2022-12-24T13:38:46.153Z,62.97
2022-12-24T13:41:41.816Z,63.04
2022-12-24T13:44:36.252Z,63.22
2022-12-24T13:47:31.595Z,63.66
2022-12-24T13:50:22.019Z,63.51
2022-12-24T13:52:53.646Z,63.79
2022-12-24T13:55:22.867Z,63.54
2022-12-24T13:58:00.202Z,63.45
2022-12-24T14:00:39.269Z,63.78
2022-12-24T14:03:20.394Z,63.81
2022-12-24T14:05:51.993Z,63.64
2022-12-24T14:08:31.282Z,63.53
2022-12-24T14:11:06.124Z,63.90
2022-12-24T14:14:10.029Z,63.82
2022-12-24T14:16:48.222Z,64.15
2022-12-24T14:19:20.573Z,64.12
2022-12-24T14:21:56.897Z,64.11
2022-12-24T14:24:28.544Z,64.18
2022-12-24T14:27:02.118Z,63.64
2022-12-24T14:29:33.663Z,64.14
2022-12-24T14:32:04.902Z,64.48
2022-12-24T14:34:33.745Z,63.81
2022-12-24T14:37:05.984Z,63.36
2022-12-24T14:39:37.384Z,63.39
2022-12-24T14:42:19.736Z,64.23
2022-12-24T14:44:57.629Z,64.82
2022-12-24T14:47:36.054Z,64.67
2022-12-24T14:50:30.095Z,64.65
2022-12-24T14:53:06.404Z,64.90
2022-12-24T14:55:41.848Z,65.23
2022-12-24T14:58:24.291Z,65.27
2022-12-24T15:00:53.791Z,65.41
2022-12-24T15:03:26.168Z,65.13
2022-12-24T15:05:56.847Z,65.22
2022-12-24T15:08:32.313Z,65.53
2022-12-24T15:11:07.445Z,65.14
2022-12-24T15:13:38.468Z,65.40
2022-12-24T15:16:09.963Z,65.42
2022-12-24T15:18:44.944Z,65.97
2022-12-24T15:21:19.937Z,65.87
2022-12-24T15:23:50.387Z,65.94
2022-12-24T15:26:25.126Z,65.91
2022-12-24T15:29:01.965Z,66.08
2022-12-24T15:31:32.432Z,66.26
2022-12-24T15:34:02.338Z,65.99
2022-12-24T15:36:34.344Z,66.11
2022-12-24T15:39:07.198Z,66.41
2022-12-24T15:42:00.705Z,66.65
2022-12-24T15:44:30.091Z,66.81
2022-12-24T15:47:01.530Z,66.78
2022-12-24T15:49:34.169Z,66.76
2022-12-24T15:52:07.790Z,66.41
2022-12-24T15:54:36.342Z,66.40
2022-12-24T15:57:15.541Z,66.52
2022-12-24T15:59:44.287Z,66.67
2022-12-24T16:02:41.828Z,66.43
2022-12-24T16:05:32.725Z,66.53
2022-12-24T16:08:17.074Z,66.50
2022-12-24T16:10:48.672Z,66.62
2022-12-24T16:13:20.605Z,66.46
2022-12-24T16:15:54.687Z,66.56
2022-12-24T16:18:28.680Z,66.33
2022-12-24T16:20:58.830Z,66.42
2022-12-24T16:23:31.075Z,66.34
2022-12-24T16:26:00.740Z,66.19
2022-12-24T16:28:29.142Z,65.92
2022-12-24T16:30:58.176Z,65.87
2022-12-24T16:33:26.637Z,66.08
2022-12-24T16:35:55.251Z,65.93
2022-12-24T16:38:25.500Z,66.01
2022-12-24T16:40:53.869Z,66.10
2022-12-24T16:43:39.636Z,65.92
2022-12-24T16:46:09.234Z,66.38
2022-12-24T16:48:39.429Z,66.16
2022-12-24T16:51:07.798Z,66.23
2022-12-24T16:53:37.823Z,66.31
2022-12-24T16:56:07.551Z,66.23
2022-12-24T16:58:36.827Z,66.18
2022-12-24T17:01:10.423Z,66.24
2022-12-24T17:03:38.706Z,66.62
2022-12-24T17:06:09.506Z,66.61
2022-12-24T17:08:39.357Z,66.49
2022-12-24T17:11:07.739Z,66.50
2022-12-24T17:13:36.056Z,66.68
2022-12-24T17:16:04.868Z,66.38
2022-12-24T17:18:33.235Z,66.33
2022-12-24T17:21:02.596Z,66.26
2022-12-24T17:23:31.361Z,66.38
2022-12-24T17:26:01.306Z,66.60
2022-12-24T17:28:29.705Z,66.59
2022-12-24T17:30:59.179Z,66.60
2022-12-24T17:33:27.856Z,66.62
2022-12-24T17:35:56.236Z,66.89
2022-12-24T17:38:24.561Z,66.79
2022-12-24T17:40:53.000Z,66.68
2022-12-24T17:43:22.890Z,66.74
2022-12-24T17:45:51.162Z,66.89
2022-12-24T17:48:19.539Z,66.98
2022-12-24T17:50:47.864Z,67.05
2022-12-24T17:53:16.324Z,66.83
2022-12-24T17:55:45.157Z,66.88
2022-12-24T17:58:15.303Z,66.70
2022-12-24T18:00:47.399Z,67.00
2022-12-24T18:03:15.841Z,66.94
2022-12-24T18:05:44.341Z,67.05
2022-12-24T18:08:12.762Z,66.76
2022-12-24T18:10:41.287Z,66.80
2022-12-24T18:13:15.710Z,66.44
2022-12-24T18:15:49.127Z,66.62
2022-12-24T18:18:17.681Z,66.57
2022-12-24T18:20:47.110Z,66.40
2022-12-24T18:23:15.645Z,66.64
2022-12-24T18:25:44.078Z,66.58
2022-12-24T18:28:12.413Z,66.81
2022-12-24T18:30:42.261Z,66.79
2022-12-24T18:33:12.197Z,66.65
2022-12-24T18:35:40.484Z,67.07
2022-12-24T18:38:08.867Z,67.00
2022-12-24T18:40:38.496Z,67.00
2022-12-24T18:43:06.874Z,66.74
2022-12-24T18:45:35.338Z,67.28
2022-12-24T18:48:04.035Z,67.34
2022-12-24T18:50:33.728Z,67.21
2022-12-24T18:53:02.298Z,67.32
2022-12-24T18:55:30.689Z,67.17
2022-12-24T18:57:59.213Z,67.45
2022-12-24T19:00:27.642Z,67.49
2022-12-24T19:02:56.163Z,67.49
2022-12-24T19:05:24.471Z,67.14
2022-12-24T19:07:54.463Z,67.29
2022-12-24T19:10:22.855Z,67.50
2022-12-24T19:12:51.505Z,67.66
2022-12-24T19:15:20.066Z,67.27
2022-12-24T19:17:48.447Z,67.20
2022-12-24T19:20:17.022Z,66.75
2022-12-24T19:22:45.442Z,66.96
2022-12-24T19:25:15.316Z,66.78
2022-12-24T19:27:43.624Z,66.98
2022-12-24T19:30:13.530Z,67.00
2022-12-24T19:32:41.906Z,66.84
2022-12-24T19:35:10.960Z,66.75
2022-12-24T19:37:39.465Z,67.02
2022-12-24T19:40:09.746Z,66.90
2022-12-24T19:42:39.566Z,66.96
2022-12-24T19:45:08.814Z,66.69
2022-12-24T19:47:37.097Z,66.77
2022-12-24T19:50:06.150Z,66.94
2022-12-24T19:52:34.586Z,66.48
2022-12-24T19:55:02.853Z,66.39
2022-12-24T19:57:31.208Z,66.41
2022-12-24T20:00:00.914Z,66.51
2022-12-24T20:02:29.617Z,66.67
2022-12-24T20:04:58.193Z,66.78
2022-12-24T20:07:26.707Z,66.96
2022-12-24T20:09:55.161Z,66.93
2022-12-24T20:12:23.650Z,66.79
2022-12-24T20:14:51.920Z,67.27
2022-12-24T20:17:21.868Z,66.98
2022-12-24T20:19:50.144Z,67.17
2022-12-24T20:22:18.540Z,67.05
2022-12-24T20:24:46.856Z,67.46
2022-12-24T20:27:15.198Z,67.04
2022-12-24T20:29:43.495Z,67.30
2022-12-24T20:32:12.329Z,67.37
2022-12-24T20:34:42.111Z,66.96
2022-12-24T20:37:10.510Z,67.48
2022-12-24T20:39:38.977Z,67.45
2022-12-24T20:42:07.480Z,67.61
2022-12-24T20:44:35.795Z,67.28
2022-12-24T20:47:04.210Z,67.54
2022-12-24T20:49:32.540Z,67.50
2022-12-24T20:52:02.300Z,67.31
2022-12-24T20:54:30.595Z,67.43
2022-12-24T20:56:59.212Z,67.70
2022-12-24T20:59:27.622Z,67.65
2022-12-24T21:01:56.210Z,67.55
2022-12-24T21:04:24.708Z,67.38
2022-12-24T21:06:53.194Z,67.48
2022-12-24T21:09:22.919Z,67.71
2022-12-24T21:12:08.397Z,67.67
2022-12-24T21:14:36.732Z,67.51
2022-12-24T21:17:06.556Z,67.18
2022-12-24T21:19:36.657Z,67.81
2022-12-24T21:22:05.000Z,67.62
2022-12-24T21:24:35.019Z,67.78
2022-12-24T21:27:03.360Z,67.89
2022-12-24T21:29:31.597Z,67.88
2022-12-24T21:31:59.963Z,67.83
2022-12-24T21:34:28.330Z,67.57
2022-12-24T21:36:56.665Z,67.60
2022-12-24T21:39:25.124Z,68.15
2022-12-24T21:41:54.911Z,68.25
2022-12-24T21:44:23.283Z,67.90
2022-12-24T21:46:51.620Z,68.35
2022-12-24T21:49:37.035Z,68.58
2022-12-24T21:52:06.022Z,68.26
2022-12-24T21:54:33.357Z,68.66
2022-12-24T21:57:23.240Z,68.67
2022-12-24T21:59:53.677Z,68.45
2022-12-24T22:02:26.810Z,68.78
2022-12-24T22:04:55.643Z,68.96
2022-12-24T22:07:40.397Z,69.13
2022-12-24T22:10:27.285Z,69.04
2022-12-24T22:12:57.589Z,69.15
2022-12-24T22:15:26.003Z,69.16
2022-12-24T22:17:54.481Z,68.93
2022-12-24T22:20:22.893Z,69.06
2022-12-24T22:22:51.411Z,69.09
2022-12-24T22:25:19.872Z,68.72
2022-12-24T22:27:48.331Z,69.16
2022-12-24T22:30:18.103Z,69.11
2022-12-24T22:32:46.446Z,69.20
2022-12-24T22:35:14.960Z,69.14
2022-12-24T22:37:43.296Z,69.05
2022-12-24T22:40:12.468Z,69.02
2022-12-24T22:42:41.554Z,68.89
2022-12-24T22:45:15.676Z,68.95
2022-12-24T22:47:48.550Z,69.12
2022-12-24T22:50:16.955Z,68.85
2022-12-24T22:52:45.365Z,68.86
2022-12-24T22:55:13.736Z,68.94
2022-12-24T22:57:42.068Z,68.70
2022-12-24T23:00:15.506Z,68.90
2022-12-24T23:02:44.656Z,69.01
2022-12-24T23:05:16.365Z,68.77
2022-12-24T23:07:44.814Z,68.85
2022-12-24T23:10:13.106Z,68.77
2022-12-24T23:12:58.540Z,69.08
2022-12-24T23:15:26.951Z,69.21
2022-12-24T23:17:55.292Z,68.83
2022-12-24T23:20:24.965Z,69.00
2022-12-24T23:22:53.419Z,69.04
2022-12-24T23:25:21.685Z,69.31
2022-12-24T23:27:50.257Z,68.91
2022-12-24T23:30:18.714Z,69.04
2022-12-24T23:32:47.260Z,69.15
2022-12-24T23:35:15.589Z,68.77
2022-12-24T23:37:45.433Z,68.99
2022-12-24T23:40:16.396Z,68.88
2022-12-24T23:42:44.745Z,68.62
2022-12-24T23:45:13.529Z,68.50
2022-12-24T23:47:41.919Z,68.32
2022-12-24T23:50:11.864Z,68.50
2022-12-24T23:52:40.276Z,68.58
2022-12-24T23:55:10.364Z,68.49
2022-12-24T23:57:38.857Z,68.52
